Time;durP1;ratioP1;P1;durP2;ratioP2;P2;SDS_P1;SDS_P2;PMS_P1;PMS_P2;Temp;Humidity;BMP_temperature;BMP_pressure;BME280_temperature;BME280_humidity;BME280_pressure;Samples;Min_cycle;Max_cycle;Signal;HPM_P1;HPM_P2
2022/07/20 00:00:11;;;;;;;2.57;2.10;;;28.20;99.90;;;;;;1043220;28;20167;-73
2022/07/20 00:00:41;;;;;;;2.88;2.10;;;28.20;99.90;;;;;;1047127;28;20367;-72
2022/07/20 00:01:12;;;;;;;3.93;2.20;;;28.20;99.90;;;;;;1043391;28;20556;-72
2022/07/20 00:01:43;;;;;;;3.03;2.17;;;28.20;99.90;;;;;;1043168;28;20427;-72
2022/07/20 00:02:14;;;;;;;2.80;2.17;;;28.10;99.90;;;;;;1043402;28;20624;-74
2022/07/20 00:02:44;;;;;;;2.60;2.40;;;28.20;99.90;;;;;;1043488;28;20440;-73
2022/07/20 00:03:15;;;;;;;3.37;2.10;;;28.10;99.90;;;;;;1043381;28;20108;-72
2022/07/20 00:03:46;;;;;;;2.43;2.23;;;28.10;99.90;;;;;;1043523;28;20020;-72
2022/07/20 00:04:17;;;;;;;2.70;1.80;;;28.10;99.90;;;;;;1043292;28;20601;-72
2022/07/20 00:04:50;;;;;;;2.73;2.27;;;28.10;99.90;;;;;;1043569;28;20025;-73
2022/07/20 00:05:21;;;;;;;3.92;2.55;;;28.10;99.90;;;;;;1043245;28;20104;-73
2022/07/20 00:05:51;;;;;;;2.60;1.93;;;28.10;99.90;;;;;;1043580;28;20028;-76
2022/07/20 00:06:22;;;;;;;2.73;2.27;;;28.10;99.90;;;;;;1043436;28;20074;-73
2022/07/20 00:06:54;;;;;;;2.20;2.00;;;28.10;99.90;;;;;;1043433;28;20363;-72
2022/07/20 00:07:25;;;;;;;2.35;2.15;;;28.10;99.90;;;;;;1043319;28;20025;-72
2022/07/20 00:07:56;;;;;;;3.20;2.30;;;28.10;99.90;;;;;;1043480;28;20020;-73
2022/07/20 00:11:44;;;;;;;2.78;2.50;;;28.10;99.90;;;;;;1047369;28;20059;-72
2022/07/20 00:12:15;;;;;;;3.17;2.38;;;28.10;99.90;;;;;;1047641;28;20016;-73
2022/07/20 00:12:45;;;;;;;2.20;2.00;;;28.10;99.90;;;;;;1047470;28;20009;-72
2022/07/20 00:13:16;;;;;;;3.20;2.60;;;28.10;99.90;;;;;;1047547;28;20399;-72
2022/07/20 00:13:49;;;;;;;2.17;1.85;;;28.10;99.90;;;;;;1047091;28;20497;-70
2022/07/20 00:14:19;;;;;;;1.80;1.70;;;28.10;99.90;;;;;;1047291;28;20099;-73
2022/07/20 00:14:50;;;;;;;5.00;2.40;;;28.10;99.90;;;;;;1046700;28;20555;-71
2022/07/20 00:15:21;;;;;;;2.53;2.03;;;28.00;99.90;;;;;;1047819;28;20073;-72
2022/07/20 00:15:51;;;;;;;3.67;2.47;;;28.00;99.90;;;;;;1047038;28;20105;-72
2022/07/20 00:16:23;;;;;;;3.40;2.23;;;28.00;99.90;;;;;;1047286;28;20021;-73
2022/07/20 00:16:54;;;;;;;3.30;2.60;;;28.00;99.90;;;;;;1046994;28;20039;-73
2022/07/20 00:17:25;;;;;;;2.80;2.60;;;28.00;99.90;;;;;;1047490;28;20111;-73
2022/07/20 00:17:55;;;;;;;3.90;2.30;;;28.00;99.90;;;;;;1047094;28;20670;-73
2022/07/20 00:18:26;;;;;;;2.90;2.60;;;28.00;99.90;;;;;;1047599;28;20021;-73
2022/07/20 00:18:56;;;;;;;2.80;2.50;;;28.00;99.90;;;;;;1047026;28;20017;-74
2022/07/20 00:19:27;;;;;;;2.73;2.43;;;28.00;99.90;;;;;;1047751;28;20020;-74
2022/07/20 00:19:57;;;;;;;2.97;2.50;;;28.00;99.90;;;;;;1047304;28;20044;-70
2022/07/20 00:20:28;;;;;;;3.77;2.60;;;28.00;99.90;;;;;;1047785;28;20850;-71
2022/07/20 00:20:59;;;;;;;3.07;2.43;;;28.00;99.90;;;;;;1046877;28;20604;-73
2022/07/20 00:21:30;;;;;;;2.30;2.00;;;28.00;99.90;;;;;;1047488;28;20016;-72
2022/07/20 00:22:00;;;;;;;5.18;2.40;;;28.00;99.90;;;;;;1046966;28;20098;-71
2022/07/20 00:22:31;;;;;;;2.63;2.43;;;28.00;99.90;;;;;;1047446;28;20491;-72
2022/07/20 00:23:03;;;;;;;2.70;2.50;;;28.00;99.90;;;;;;1047505;28;20028;-73
2022/07/20 00:23:34;;;;;;;3.15;2.70;;;28.00;99.90;;;;;;1043781;28;20047;-71
2022/07/20 00:24:05;;;;;;;2.50;2.30;;;28.00;99.90;;;;;;1043261;28;20025;-72
2022/07/20 00:24:36;;;;;;;4.63;2.47;;;28.00;99.90;;;;;;1043497;28;20022;-72
2022/07/20 00:25:07;;;;;;;3.05;2.40;;;28.00;99.90;;;;;;1042947;28;20023;-72
2022/07/20 00:25:38;;;;;;;2.83;2.27;;;28.00;99.90;;;;;;1043053;28;20051;-70
2022/07/20 00:26:09;;;;;;;3.90;2.40;;;28.00;99.90;;;;;;1043076;28;20263;-72
2022/07/20 00:26:40;;;;;;;3.10;2.70;;;28.00;99.90;;;;;;1043035;28;20087;-73
2022/07/20 00:27:10;;;;;;;3.10;2.50;;;27.90;99.90;;;;;;1043432;28;20143;-74
2022/07/20 00:27:41;;;;;;;2.73;2.37;;;27.90;99.90;;;;;;1043292;28;20103;-72
2022/07/20 00:28:11;;;;;;;3.53;2.50;;;27.90;99.90;;;;;;1043056;28;20013;-73
2022/07/20 00:28:42;;;;;;;2.67;2.17;;;27.90;99.90;;;;;;1042964;28;20428;-71
2022/07/20 00:29:13;;;;;;;2.57;2.37;;;27.90;99.90;;;;;;1043261;28;20387;-70
2022/07/20 00:29:43;;;;;;;3.17;2.47;;;27.90;99.90;;;;;;1042995;28;20140;-73
2022/07/20 00:30:14;;;;;;;2.43;2.17;;;27.90;99.90;;;;;;1043451;28;20025;-70
2022/07/20 00:30:46;;;;;;;2.40;2.17;;;27.90;99.90;;;;;;1042856;28;20021;-73
2022/07/20 00:31:17;;;;;;;2.53;2.22;;;27.90;99.90;;;;;;1043423;28;20040;-72
2022/07/20 00:31:48;;;;;;;2.20;2.00;;;27.90;99.90;;;;;;1042868;28;20025;-72
2022/07/20 00:32:19;;;;;;;3.20;2.47;;;27.90;99.90;;;;;;1043150;28;20103;-70
2022/07/20 00:32:49;;;;;;;2.50;2.10;;;27.90;99.90;;;;;;1043242;28;20021;-73
2022/07/20 00:33:20;;;;;;;2.87;2.00;;;27.90;99.90;;;;;;1043575;28;20021;-73
2022/07/20 00:33:50;;;;;;;2.93;1.90;;;27.90;99.90;;;;;;1043197;28;20655;-73
2022/07/20 00:34:21;;;;;;;2.50;2.30;;;27.90;99.90;;;;;;1043524;28;20025;-73
2022/07/20 00:34:51;;;;;;;2.87;2.27;;;27.90;99.90;;;;;;1042811;28;20047;-74
2022/07/20 00:35:22;;;;;;;2.90;2.20;;;27.90;99.90;;;;;;1043269;28;20025;-73
2022/07/20 00:35:53;;;;;;;2.50;1.93;;;27.90;99.90;;;;;;1042799;28;20103;-73
2022/07/20 00:36:23;;;;;;;4.20;2.70;;;27.90;99.90;;;;;;1043251;28;20063;-74
2022/07/20 00:36:54;;;;;;;3.50;2.20;;;27.90;99.90;;;;;;1043118;28;20025;-72
2022/07/20 00:37:24;;;;;;;2.73;2.20;;;27.90;99.90;;;;;;1043069;28;20021;-73
2022/07/20 00:37:55;;;;;;;2.27;2.07;;;27.90;99.90;;;;;;1042774;28;20044;-72
2022/07/20 00:38:25;;;;;;;2.90;2.40;;;27.90;99.90;;;;;;1043178;28;20055;-72
2022/07/20 00:38:56;;;;;;;3.63;2.03;;;27.90;99.90;;;;;;1038462;28;20057;-73
2022/07/20 00:39:26;;;;;;;2.70;2.00;;;27.90;99.90;;;;;;1039281;28;20530;-72
2022/07/20 00:39:57;;;;;;;2.43;2.23;;;27.90;99.90;;;;;;1042790;28;20021;-70
2022/07/20 00:40:27;;;;;;;2.63;2.00;;;27.90;99.90;;;;;;1043155;28;20021;-72
2022/07/20 00:40:58;;;;;;;3.73;2.40;;;27.90;99.90;;;;;;1043091;28;20025;-71
2022/07/20 00:41:29;;;;;;;4.53;2.43;;;27.90;99.90;;;;;;1043597;28;20021;-73
2022/07/20 00:42:00;;;;;;;2.35;1.83;;;27.90;99.90;;;;;;1043063;28;20030;-74
2022/07/20 00:42:30;;;;;;;2.40;2.20;;;27.90;99.90;;;;;;1043622;28;20039;-71
2022/07/20 00:43:01;;;;;;;2.47;2.27;;;27.90;99.90;;;;;;1042716;28;20063;-71
2022/07/20 00:43:53;;;;;;;3.33;2.43;;;27.80;99.90;;;;;;1043232;28;20017;-71
2022/07/20 00:44:24;;;;;;;3.55;2.30;;;27.80;99.90;;;;;;1042863;28;20035;-72
2022/07/20 00:44:54;;;;;;;4.77;2.63;;;27.80;99.90;;;;;;1041976;28;20025;-72
2022/07/20 00:45:25;;;;;;;2.47;2.10;;;27.80;99.90;;;;;;1038826;28;20440;-72
2022/07/20 00:45:55;;;;;;;2.20;2.00;;;27.80;99.90;;;;;;1038811;28;20013;-73
2022/07/20 00:46:28;;;;;;;3.63;2.27;;;27.80;99.90;;;;;;1034798;28;20070;-71
2022/07/20 00:46:59;;;;;;;3.65;2.40;;;27.80;99.90;;;;;;1034942;28;20083;-73
2022/07/20 00:47:29;;;;;;;2.30;2.10;;;27.80;99.90;;;;;;1038967;28;20203;-73
2022/07/20 00:48:00;;;;;;;2.80;2.60;;;27.80;99.90;;;;;;1039274;28;20525;-73
2022/07/20 00:48:30;;;;;;;4.07;2.27;;;27.80;99.90;;;;;;1042883;28;20435;-73
2022/07/20 00:49:02;;;;;;;2.57;2.03;;;27.80;99.90;;;;;;1043290;28;20108;-73
2022/07/20 00:49:32;;;;;;;2.70;2.50;;;27.80;99.90;;;;;;1042809;28;20036;-74
2022/07/20 00:50:03;;;;;;;2.47;2.27;;;27.80;99.90;;;;;;1042926;28;20031;-71
2022/07/20 00:50:34;;;;;;;2.85;2.10;;;27.80;99.90;;;;;;1042851;28;20040;-71
2022/07/20 00:51:05;;;;;;;3.37;2.40;;;27.80;99.90;;;;;;1043050;28;20112;-72
2022/07/20 00:51:39;;;;;;;4.28;2.33;;;27.80;99.90;;;;;;1043115;28;20016;-73
2022/07/20 00:52:09;;;;;;;2.80;2.17;;;27.80;99.90;;;;;;1042903;28;20025;-70
2022/07/20 00:52:40;;;;;;;3.00;2.23;;;27.80;99.90;;;;;;1042659;28;20044;-71
2022/07/20 00:53:11;;;;;;;3.00;2.42;;;27.80;99.90;;;;;;1043199;28;20097;-71
2022/07/20 00:53:42;;;;;;;2.93;2.27;;;27.80;99.90;;;;;;1042748;28;20023;-71
2022/07/20 00:54:13;;;;;;;3.60;2.20;;;27.80;99.90;;;;;;1043588;28;20009;-71
2022/07/20 00:54:48;;;;;;;2.55;2.10;;;27.70;99.90;;;;;;1043184;28;20013;-73
2022/07/20 00:55:18;;;;;;;4.03;2.28;;;27.70;99.90;;;;;;1042857;28;20104;-71
2022/07/20 00:55:49;;;;;;;2.57;2.30;;;27.70;99.90;;;;;;1042863;28;20016;-71
2022/07/20 00:56:20;;;;;;;2.70;2.50;;;27.80;99.90;;;;;;1043075;28;20040;-71
2022/07/20 00:56:51;;;;;;;2.35;2.13;;;27.70;99.90;;;;;;1042995;28;20040;-71
2022/07/20 00:57:22;;;;;;;3.07;2.57;;;27.70;99.90;;;;;;1043059;28;20388;-72
2022/07/20 00:57:53;;;;;;;3.43;2.80;;;27.70;99.90;;;;;;1042656;28;20009;-73
2022/07/20 00:58:24;;;;;;;2.35;2.15;;;27.70;99.90;;;;;;1043187;28;20109;-74
2022/07/20 00:58:54;;;;;;;5.47;2.67;;;27.70;99.90;;;;;;1042619;28;20071;-72
2022/07/20 00:59:25;;;;;;;4.97;2.90;;;27.70;99.90;;;;;;1043413;28;20017;-72
2022/07/20 00:59:56;;;;;;;3.17;2.60;;;27.70;99.90;;;;;;1042799;28;20017;-71
2022/07/20 01:00:26;;;;;;;3.80;2.33;;;27.70;99.90;;;;;;1043286;28;20392;-74
2022/07/20 01:00:57;;;;;;;2.60;2.40;;;27.70;99.90;;;;;;1043040;28;20491;-72
2022/07/20 01:01:27;;;;;;;2.90;2.17;;;27.70;99.90;;;;;;1043604;28;20014;-73
2022/07/20 01:01:58;;;;;;;2.40;2.20;;;27.70;99.90;;;;;;1042843;28;20017;-71
2022/07/20 01:02:28;;;;;;;3.93;2.50;;;27.70;99.90;;;;;;1043431;28;20024;-72
2022/07/20 01:02:59;;;;;;;3.00;2.50;;;27.70;99.90;;;;;;1043072;28;20472;-71
2022/07/20 01:03:30;;;;;;;3.20;2.70;;;27.70;99.90;;;;;;1043428;28;20017;-72
2022/07/20 01:04:01;;;;;;;4.78;2.40;;;27.70;99.90;;;;;;1043157;28;20021;-71
2022/07/20 01:04:32;;;;;;;3.83;2.50;;;27.70;99.90;;;;;;1043686;28;20035;-69
2022/07/20 01:05:04;;;;;;;2.40;2.20;;;27.70;99.90;;;;;;1043156;28;20036;-73
2022/07/20 01:05:34;;;;;;;3.05;2.35;;;27.70;99.90;;;;;;1043350;28;20032;-71
2022/07/20 01:06:06;;;;;;;2.90;2.00;;;27.70;99.90;;;;;;1043089;28;20040;-72
2022/07/20 01:06:37;;;;;;;2.97;2.10;;;27.70;99.90;;;;;;1043357;28;20128;-73
2022/07/20 01:07:07;;;;;;;3.10;2.43;;;27.70;99.90;;;;;;1043338;28;20027;-73
2022/07/20 01:07:38;;;;;;;4.27;2.63;;;27.70;99.90;;;;;;1043140;28;20106;-70
2022/07/20 01:08:09;;;;;;;2.67;2.13;;;27.60;99.90;;;;;;1043048;28;20021;-74
2022/07/20 01:08:39;;;;;;;2.90;2.40;;;27.60;99.90;;;;;;1046742;28;20019;-73
2022/07/20 01:09:10;;;;;;;2.43;2.23;;;27.60;99.90;;;;;;1047232;28;20008;-71
2022/07/20 01:09:41;;;;;;;3.27;2.23;;;27.60;99.90;;;;;;1047314;28;20672;-71
2022/07/20 01:10:13;;;;;;;3.00;2.07;;;27.60;99.90;;;;;;1047388;28;20297;-71
2022/07/20 01:10:43;;;;;;;3.08;2.40;;;27.60;99.90;;;;;;1046788;28;20039;-71
2022/07/20 01:11:14;;;;;;;3.50;2.30;;;27.60;99.90;;;;;;1047051;28;20408;-70
2022/07/20 01:11:45;;;;;;;4.30;2.43;;;27.60;99.90;;;;;;1046689;28;20072;-71
2022/07/20 01:12:15;;;;;;;2.37;1.90;;;27.60;99.90;;;;;;1047160;28;20517;-71
2022/07/20 01:12:48;;;;;;;2.20;2.00;;;27.60;99.90;;;;;;1047065;28;20537;-70
2022/07/20 01:13:18;;;;;;;2.67;2.38;;;27.60;99.90;;;;;;1047357;28;20476;-69
2022/07/20 01:13:49;;;;;;;2.33;2.13;;;27.60;99.90;;;;;;1046794;28;20696;-71
2022/07/20 01:14:20;;;;;;;2.63;2.20;;;27.60;99.90;;;;;;1047122;28;20028;-73
2022/07/20 01:14:54;;;;;;;4.33;2.10;;;27.60;99.90;;;;;;1046777;28;20605;-72
2022/07/20 01:15:25;;;;;;;2.97;2.67;;;27.60;99.90;;;;;;1047202;28;20092;-70
2022/07/20 01:15:55;;;;;;;2.23;2.03;;;27.60;99.90;;;;;;1047224;28;20593;-71
2022/07/20 01:16:26;;;;;;;2.97;2.40;;;27.60;99.90;;;;;;1047601;28;20055;-72
2022/07/20 01:16:56;;;;;;;3.60;2.63;;;27.60;99.90;;;;;;1047100;28;20021;-72
2022/07/20 01:17:27;;;;;;;3.17;2.30;;;27.60;99.90;;;;;;1047412;28;20070;-72
2022/07/20 01:17:57;;;;;;;2.53;2.23;;;27.60;99.90;;;;;;1047062;28;20384;-69
2022/07/20 01:18:28;;;;;;;2.50;2.30;;;27.60;99.90;;;;;;1047712;28;20537;-72
2022/07/20 01:18:59;;;;;;;3.53;2.10;;;27.60;99.90;;;;;;1046992;28;20115;-73
2022/07/20 01:19:30;;;;;;;2.40;2.20;;;27.60;99.90;;;;;;1047481;28;20021;-72
2022/07/20 01:20:00;;;;;;;2.73;2.43;;;27.60;99.90;;;;;;1046968;28;20637;-72
2022/07/20 01:20:33;;;;;;;4.00;2.90;;;27.60;99.90;;;;;;1047599;28;20052;-72
2022/07/20 01:21:05;;;;;;;2.75;2.00;;;27.60;99.90;;;;;;1046641;28;20055;-71
2022/07/20 01:21:40;;;;;;;3.13;2.47;;;27.60;99.90;;;;;;1047231;28;20496;-72
2022/07/20 01:22:11;;;;;;;2.30;2.10;;;27.60;99.90;;;;;;1046802;28;20059;-72
2022/07/20 01:22:46;;;;;;;4.37;2.50;;;27.60;99.90;;;;;;1047007;28;20043;-72
2022/07/20 01:23:17;;;;;;;4.22;2.65;;;27.60;99.90;;;;;;1046758;28;20330;-72
2022/07/20 01:23:48;;;;;;;4.53;2.40;;;27.50;99.90;;;;;;1046865;28;20020;-71
2022/07/20 01:24:18;;;;;;;3.43;2.50;;;27.60;99.90;;;;;;1046773;28;20095;-72
2022/07/20 01:24:49;;;;;;;2.40;2.20;;;27.50;99.90;;;;;;1043076;28;20123;-70
2022/07/20 01:25:19;;;;;;;3.03;2.37;;;27.50;99.90;;;;;;1046802;28;20032;-71
2022/07/20 01:25:50;;;;;;;2.53;2.23;;;27.50;99.90;;;;;;1047059;28;20033;-71
2022/07/20 01:26:21;;;;;;;5.40;2.80;;;27.50;99.90;;;;;;1046205;28;20094;-72
2022/07/20 01:26:51;;;;;;;3.77;2.47;;;27.50;99.90;;;;;;1046621;28;20074;-71
2022/07/20 01:27:22;;;;;;;3.07;2.40;;;27.50;99.90;;;;;;1046822;28;20438;-69
2022/07/20 01:27:55;;;;;;;3.13;2.50;;;27.50;99.90;;;;;;1046954;28;20156;-71
2022/07/20 01:28:28;;;;;;;4.22;2.53;;;27.50;99.90;;;;;;1046810;28;20016;-71
2022/07/20 01:28:59;;;;;;;2.30;2.10;;;27.50;99.90;;;;;;1046807;28;20139;-71
2022/07/20 01:29:30;;;;;;;5.30;2.40;;;27.50;99.90;;;;;;1046801;28;20026;-72
2022/07/20 01:30:00;;;;;;;2.90;2.60;;;27.50;99.90;;;;;;1046814;28;20025;-71
2022/07/20 01:30:31;;;;;;;3.23;2.53;;;27.50;99.90;;;;;;1046973;28;20052;-71
2022/07/20 01:31:01;;;;;;;2.43;2.23;;;27.50;99.90;;;;;;1046783;28;20028;-72
2022/07/20 01:31:32;;;;;;;2.80;2.50;;;27.50;99.90;;;;;;1047154;28;20024;-71
2022/07/20 01:32:03;;;;;;;3.43;2.40;;;27.50;99.90;;;;;;1047224;28;20403;-71
2022/07/20 01:32:33;;;;;;;3.53;2.00;;;27.50;99.90;;;;;;1047091;28;20020;-71
2022/07/20 01:33:04;;;;;;;4.47;2.43;;;27.50;99.90;;;;;;1047292;28;20083;-70
2022/07/20 01:33:35;;;;;;;4.20;2.40;;;27.50;99.90;;;;;;1047194;28;20013;-70
2022/07/20 01:34:06;;;;;;;3.60;2.70;;;27.40;99.90;;;;;;1046749;28;20551;-71
2022/07/20 01:34:36;;;;;;;3.45;2.65;;;27.40;99.90;;;;;;1046842;28;20020;-71
2022/07/20 01:35:07;;;;;;;2.63;2.23;;;27.40;99.90;;;;;;1046934;28;20054;-72
2022/07/20 01:35:38;;;;;;;4.30;2.60;;;27.40;99.90;;;;;;1046731;28;20032;-70
2022/07/20 01:36:08;;;;;;;3.17;2.73;;;27.40;99.90;;;;;;1047279;28;20016;-71
2022/07/20 01:36:39;;;;;;;2.90;2.57;;;27.40;99.90;;;;;;1047066;28;20021;-70
2022/07/20 01:37:09;;;;;;;3.10;2.80;;;27.40;99.90;;;;;;1047366;28;20058;-71
2022/07/20 01:37:40;;;;;;;3.73;2.67;;;27.40;99.90;;;;;;1047134;28;20087;-71
2022/07/20 01:38:10;;;;;;;3.53;2.20;;;27.40;99.90;;;;;;1047360;28;20389;-71
2022/07/20 01:38:41;;;;;;;3.53;2.50;;;27.40;99.90;;;;;;1047005;28;20376;-71
2022/07/20 01:39:12;;;;;;;3.27;2.73;;;27.40;99.90;;;;;;1046822;28;20562;-71
2022/07/20 01:39:42;;;;;;;3.30;2.63;;;27.40;99.90;;;;;;1046783;28;20009;-71
2022/07/20 01:40:13;;;;;;;4.33;2.30;;;27.40;99.90;;;;;;1046833;28;20542;-69
2022/07/20 01:40:43;;;;;;;6.37;3.30;;;27.40;99.90;;;;;;1046847;28;20022;-70
2022/07/20 01:41:14;;;;;;;3.90;2.20;;;27.40;99.90;;;;;;1047084;28;20471;-69
2022/07/20 01:41:47;;;;;;;3.10;2.50;;;27.40;99.90;;;;;;1046745;28;20023;-71
2022/07/20 01:42:18;;;;;;;3.97;2.50;;;27.40;99.90;;;;;;1046779;28;20032;-69
2022/07/20 01:42:48;;;;;;;3.87;2.50;;;27.40;99.90;;;;;;1046867;28;20021;-69
2022/07/20 01:43:19;;;;;;;2.93;2.73;;;27.40;99.90;;;;;;1046853;28;20025;-70
2022/07/20 01:43:49;;;;;;;2.73;2.33;;;27.40;99.90;;;;;;1046824;28;20025;-70
2022/07/20 01:44:23;;;;;;;2.50;2.30;;;27.40;99.90;;;;;;1046704;28;20016;-71
2022/07/20 01:44:54;;;;;;;3.92;2.55;;;27.40;99.90;;;;;;1046803;28;20025;-69
2022/07/20 01:45:24;;;;;;;3.50;2.53;;;27.30;99.90;;;;;;1046873;28;20017;-72
2022/07/20 01:45:55;;;;;;;3.07;2.23;;;27.30;99.90;;;;;;1046744;28;20115;-70
2022/07/20 01:46:25;;;;;;;2.50;2.00;;;27.40;99.90;;;;;;1046845;28;20013;-71
2022/07/20 01:46:56;;;;;;;2.93;2.30;;;27.30;99.90;;;;;;1047069;28;20013;-69
2022/07/20 01:47:26;;;;;;;4.13;2.50;;;27.30;99.90;;;;;;1046726;28;20568;-71
2022/07/20 01:47:57;;;;;;;3.33;2.40;;;27.30;99.90;;;;;;1047096;28;20451;-71
2022/07/20 01:48:27;;;;;;;4.30;2.40;;;27.30;99.90;;;;;;1046715;28;20589;-72
2022/07/20 01:48:58;;;;;;;3.17;2.47;;;27.30;99.90;;;;;;1046738;28;20091;-71
2022/07/20 01:49:28;;;;;;;2.60;2.37;;;27.30;99.90;;;;;;1046868;28;20737;-72
2022/07/20 01:50:00;;;;;;;2.63;2.30;;;27.30;99.90;;;;;;1046750;28;20027;-71
2022/07/20 01:50:30;;;;;;;4.57;2.42;;;27.30;99.90;;;;;;1047067;28;20514;-72
2022/07/20 01:51:01;;;;;;;2.70;2.03;;;27.30;99.90;;;;;;1047246;28;20380;-71
2022/07/20 01:51:31;;;;;;;3.93;2.60;;;27.30;99.90;;;;;;1046017;28;20357;-70
2022/07/20 01:52:02;;;;;;;2.90;2.63;;;27.30;99.90;;;;;;1042953;28;20021;-72
2022/07/20 01:52:33;;;;;;;3.67;2.30;;;27.30;99.90;;;;;;1043103;28;20071;-71
2022/07/20 01:53:04;;;;;;;2.37;2.17;;;27.30;99.90;;;;;;1043049;28;20025;-71
2022/07/20 01:53:35;;;;;;;2.88;2.58;;;27.30;99.90;;;;;;1042957;28;20045;-70
2022/07/20 01:54:06;;;;;;;4.77;2.30;;;27.30;99.90;;;;;;1043071;28;20025;-71
2022/07/20 01:54:36;;;;;;;3.13;2.47;;;27.30;99.90;;;;;;1042942;28;20388;-71
2022/07/20 01:55:07;;;;;;;2.53;2.27;;;27.30;99.90;;;;;;1042564;28;20059;-71
2022/07/20 01:55:38;;;;;;;2.60;2.30;;;27.30;99.90;;;;;;1042517;28;20033;-71
2022/07/20 01:56:08;;;;;;;2.30;2.00;;;27.30;99.90;;;;;;1042795;28;20021;-72
2022/07/20 01:56:42;;;;;;;5.30;2.43;;;27.30;99.90;;;;;;1042571;28;20029;-70
2022/07/20 01:57:13;;;;;;;2.42;2.22;;;27.30;99.90;;;;;;1043330;28;20029;-71
2022/07/20 01:57:43;;;;;;;2.40;2.20;;;27.30;99.90;;;;;;1042714;28;20017;-71
2022/07/20 01:58:14;;;;;;;2.53;2.27;;;27.30;99.90;;;;;;1043129;28;20084;-71
2022/07/20 01:58:44;;;;;;;4.27;2.40;;;27.30;99.90;;;;;;1042849;28;20428;-70
2022/07/20 01:59:15;;;;;;;2.97;2.23;;;27.30;99.90;;;;;;1043214;28;20109;-71
2022/07/20 01:59:45;;;;;;;2.77;2.47;;;27.30;99.90;;;;;;1042994;28;20484;-70
2022/07/20 02:00:17;;;;;;;3.70;2.57;;;27.30;99.90;;;;;;1042983;28;20106;-72
2022/07/20 02:00:48;;;;;;;3.20;2.05;;;27.30;99.90;;;;;;1042829;28;20017;-72
2022/07/20 02:01:18;;;;;;;2.60;2.10;;;27.30;99.90;;;;;;1042556;28;20480;-71
2022/07/20 02:01:49;;;;;;;3.90;2.50;;;27.30;99.90;;;;;;1042271;28;20561;-71
2022/07/20 02:02:19;;;;;;;2.87;2.57;;;27.30;99.90;;;;;;1042610;28;20166;-71
2022/07/20 02:02:50;;;;;;;3.37;2.23;;;27.30;99.90;;;;;;1042635;28;20021;-70
2022/07/20 02:03:20;;;;;;;3.07;2.37;;;27.30;99.90;;;;;;1042984;28;20032;-70
2022/07/20 02:03:51;;;;;;;2.93;2.63;;;27.30;99.90;;;;;;1042876;28;20430;-69
2022/07/20 02:04:22;;;;;;;2.77;2.53;;;27.30;99.90;;;;;;1043090;28;20025;-72
2022/07/20 02:04:52;;;;;;;3.63;2.40;;;27.30;99.90;;;;;;1046268;28;20599;-71
2022/07/20 02:05:23;;;;;;;4.07;2.37;;;27.20;99.90;;;;;;1047217;28;20025;-72
2022/07/20 02:05:53;;;;;;;4.73;2.23;;;27.20;99.90;;;;;;1047114;28;20097;-72
2022/07/20 02:06:24;;;;;;;3.77;2.77;;;27.20;99.90;;;;;;1046731;28;20031;-72
2022/07/20 02:06:54;;;;;;;2.83;2.50;;;27.20;99.90;;;;;;1046829;28;20025;-71
2022/07/20 02:07:25;;;;;;;2.67;2.00;;;27.20;99.90;;;;;;1046676;28;20031;-71
2022/07/20 02:07:55;;;;;;;3.13;2.40;;;27.20;99.90;;;;;;1046757;28;20020;-71
2022/07/20 02:08:28;;;;;;;2.63;2.20;;;27.20;99.90;;;;;;1046720;28;20020;-71
2022/07/20 02:08:59;;;;;;;3.28;2.60;;;27.20;99.90;;;;;;1046998;28;20437;-72
2022/07/20 02:09:29;;;;;;;3.07;2.50;;;27.20;99.90;;;;;;1047159;28;20545;-72
2022/07/20 02:10:00;;;;;;;2.40;2.20;;;27.20;99.90;;;;;;1046999;28;20503;-72
2022/07/20 02:10:30;;;;;;;2.70;2.40;;;27.20;99.90;;;;;;1047052;28;20701;-69
2022/07/20 02:11:01;;;;;;;2.50;2.30;;;27.20;99.90;;;;;;1047061;28;20077;-71
2022/07/20 02:11:31;;;;;;;3.60;2.40;;;27.20;99.90;;;;;;1046986;28;20686;-71
2022/07/20 02:12:02;;;;;;;3.13;2.37;;;27.20;99.90;;;;;;1047278;28;20020;-71
2022/07/20 02:12:34;;;;;;;3.80;2.20;;;27.20;99.90;;;;;;1046519;28;20099;-71
2022/07/20 02:13:04;;;;;;;3.10;2.45;;;27.20;99.90;;;;;;1046633;28;20016;-71
2022/07/20 02:13:36;;;;;;;3.23;2.30;;;27.20;99.90;;;;;;1046644;28;20040;-70
2022/07/20 02:14:06;;;;;;;3.63;2.28;;;27.20;99.90;;;;;;1046749;28;20016;-71
2022/07/20 02:14:37;;;;;;;2.73;2.33;;;27.20;99.90;;;;;;1046555;28;20012;-71
2022/07/20 02:15:09;;;;;;;3.93;2.10;;;27.20;99.90;;;;;;1046828;28;20040;-71
2022/07/20 02:16:29;;;;;;;3.83;2.47;;;27.20;99.90;;;;;;1043037;28;20036;-71
2022/07/20 02:16:59;;;;;;;2.60;2.20;;;27.20;99.90;;;;;;1042732;28;20096;-71
2022/07/20 02:17:30;;;;;;;2.93;2.63;;;27.10;99.90;;;;;;1043147;28;20096;-70
2022/07/20 02:18:06;;;;;;;2.70;2.23;;;27.10;99.90;;;;;;1042917;28;20048;-71
2022/07/20 02:18:36;;;;;;;2.25;2.05;;;27.10;99.90;;;;;;1042886;28;20024;-71
2022/07/20 02:19:07;;;;;;;3.80;2.23;;;27.10;99.90;;;;;;1042862;28;20024;-71
2022/07/20 02:19:37;;;;;;;3.67;2.47;;;27.10;99.90;;;;;;1042904;28;20043;-71
2022/07/20 02:20:08;;;;;;;2.83;2.57;;;27.10;99.90;;;;;;1043043;28;20381;-72
2022/07/20 02:20:40;;;;;;;4.68;2.70;;;27.10;99.90;;;;;;1042486;28;20017;-70
2022/07/20 02:21:11;;;;;;;3.42;2.35;;;27.10;99.90;;;;;;1042527;28;20401;-71
2022/07/20 02:21:42;;;;;;;3.90;2.37;;;27.10;99.90;;;;;;1042601;28;20016;-71
2022/07/20 02:22:12;;;;;;;2.53;2.30;;;27.10;99.90;;;;;;1042680;28;20251;-70
2022/07/20 02:22:43;;;;;;;4.27;2.33;;;27.10;99.90;;;;;;1042475;28;20013;-69
2022/07/20 02:23:13;;;;;;;3.97;2.33;;;27.10;99.90;;;;;;1042604;28;20009;-71
2022/07/20 02:23:44;;;;;;;3.13;2.23;;;27.10;99.90;;;;;;1042667;28;20143;-70
2022/07/20 02:24:15;;;;;;;4.53;2.45;;;27.10;99.90;;;;;;1042531;28;20120;-70
2022/07/20 02:24:45;;;;;;;3.37;2.27;;;27.10;99.90;;;;;;1042672;28;20021;-70
2022/07/20 02:25:16;;;;;;;3.27;2.67;;;27.10;99.90;;;;;;1042764;28;20500;-71
2022/07/20 02:25:46;;;;;;;2.70;2.33;;;27.10;99.90;;;;;;1043154;28;20568;-71
2022/07/20 02:26:17;;;;;;;2.83;2.20;;;27.10;99.90;;;;;;1042821;28;20049;-71
2022/07/20 02:26:48;;;;;;;3.87;2.17;;;27.10;99.90;;;;;;1042992;28;20013;-70
2022/07/20 02:27:18;;;;;;;3.13;2.10;;;27.10;99.90;;;;;;1042839;28;20044;-71
2022/07/20 02:27:49;;;;;;;2.60;2.30;;;27.10;99.90;;;;;;1042954;28;20013;-71
2022/07/20 02:28:19;;;;;;;2.73;2.20;;;27.10;99.90;;;;;;1042774;28;20640;-71
2022/07/20 02:28:50;;;;;;;3.30;2.40;;;27.10;99.90;;;;;;1043034;28;20100;-70
2022/07/20 02:29:21;;;;;;;2.33;2.13;;;27.10;99.90;;;;;;1042335;28;20486;-71
2022/07/20 02:29:51;;;;;;;3.00;2.03;;;27.10;99.90;;;;;;1038608;28;20711;-71
2022/07/20 02:30:22;;;;;;;2.93;2.43;;;27.10;99.90;;;;;;1038468;28;20005;-72
2022/07/20 02:30:53;;;;;;;2.47;2.23;;;27.10;99.90;;;;;;1038840;28;20017;-72
2022/07/20 02:31:24;;;;;;;2.67;2.27;;;27.10;99.90;;;;;;1042536;28;20063;-71
2022/07/20 02:31:54;;;;;;;3.13;2.40;;;27.10;99.90;;;;;;1042981;28;20028;-70
2022/07/20 02:32:25;;;;;;;4.93;2.57;;;27.10;99.90;;;;;;1042747;28;20733;-70
2022/07/20 02:32:55;;;;;;;3.13;2.10;;;27.10;99.90;;;;;;1043016;28;20120;-72
2022/07/20 02:33:26;;;;;;;2.60;2.23;;;27.10;99.90;;;;;;1042969;28;20048;-70
2022/07/20 02:33:56;;;;;;;3.53;2.77;;;27.10;99.90;;;;;;1042856;28;20124;-70
2022/07/20 02:34:27;;;;;;;2.13;1.80;;;27.10;99.90;;;;;;1042820;28;20064;-72
2022/07/20 02:34:57;;;;;;;2.53;2.30;;;27.10;99.90;;;;;;1042879;28;20021;-70
2022/07/20 02:35:28;;;;;;;2.63;1.80;;;27.10;99.90;;;;;;1042738;28;20064;-72
2022/07/20 02:35:59;;;;;;;2.40;2.20;;;27.10;99.90;;;;;;1042637;28;20063;-72
2022/07/20 02:36:29;;;;;;;2.90;2.60;;;27.10;99.90;;;;;;1042635;28;20538;-70
2022/07/20 02:37:00;;;;;;;3.33;2.47;;;27.10;99.90;;;;;;1042334;28;20029;-70
2022/07/20 02:37:30;;;;;;;3.30;2.77;;;27.10;99.90;;;;;;1042987;28;20078;-71
2022/07/20 02:38:01;;;;;;;4.07;2.30;;;27.10;99.90;;;;;;1042541;28;20044;-73
2022/07/20 02:38:31;;;;;;;3.47;2.67;;;27.10;99.90;;;;;;1043207;28;20021;-70
2022/07/20 02:39:03;;;;;;;3.30;2.10;;;27.10;99.90;;;;;;1042136;28;20535;-70
2022/07/20 02:39:34;;;;;;;2.40;2.20;;;27.10;99.90;;;;;;1042683;28;20020;-69
2022/07/20 02:40:05;;;;;;;3.37;2.60;;;27.10;99.90;;;;;;1042441;28;20056;-70
2022/07/20 02:40:36;;;;;;;2.95;2.30;;;27.10;99.90;;;;;;1042527;28;20063;-70
2022/07/20 02:41:07;;;;;;;4.30;2.33;;;27.10;99.90;;;;;;1042414;28;20086;-71
2022/07/20 02:41:37;;;;;;;3.07;2.40;;;27.00;99.90;;;;;;1042639;28;20048;-71
2022/07/20 02:42:08;;;;;;;2.57;2.37;;;27.00;99.90;;;;;;1042397;28;20028;-71
2022/07/20 02:42:38;;;;;;;2.50;2.30;;;27.00;99.90;;;;;;1042935;28;20100;-69
2022/07/20 02:43:09;;;;;;;3.63;2.50;;;27.00;99.90;;;;;;1042635;28;20077;-70
2022/07/20 02:43:39;;;;;;;5.23;2.40;;;27.00;99.90;;;;;;1042671;28;20055;-70
2022/07/20 02:44:10;;;;;;;5.27;2.97;;;27.00;99.90;;;;;;1042365;28;20021;-70
2022/07/20 02:44:40;;;;;;;4.60;2.60;;;27.00;99.90;;;;;;1042526;28;20123;-71
2022/07/20 02:45:11;;;;;;;3.00;2.70;;;27.00;99.90;;;;;;1042476;28;20487;-71